Time;durP1;ratioP1;P1;durP2;ratioP2;P2;SDS_P1;SDS_P2;PMS_P1;PMS_P2;Temp;Humidity;BMP_temperature;BMP_pressure;BME280_temperature;BME280_humidity;BME280_pressure;Samples;Min_cycle;Max_cycle;Signal;HPM_P1;HPM_P2
2022/09/23 00:00:40;;;;;;;3.28;2.40;;;4.30;99.90;;;;;;5066306;28;20028;-59
2022/09/23 00:03:06;;;;;;;5.10;2.53;;;4.30;99.90;;;;;;5049226;28;20119;-59
2022/09/23 00:05:32;;;;;;;6.30;2.60;;;4.30;99.90;;;;;;5066381;28;20485;-59
2022/09/23 00:07:58;;;;;;;5.53;2.90;;;4.30;99.90;;;;;;5049333;28;20052;-59
2022/09/23 00:10:25;;;;;;;3.42;2.15;;;4.30;99.90;;;;;;5065896;28;20052;-59
2022/09/23 00:12:53;;;;;;;5.15;3.00;;;4.30;99.90;;;;;;5067713;28;20028;-59
2022/09/23 00:15:18;;;;;;;6.18;2.67;;;4.30;99.90;;;;;;5052722;28;20073;-59
2022/09/23 00:17:44;;;;;;;6.45;2.80;;;4.20;99.90;;;;;;5068380;28;20040;-59
2022/09/23 00:20:10;;;;;;;6.90;2.70;;;4.20;99.90;;;;;;5051497;28;20032;-59
2022/09/23 00:22:37;;;;;;;3.15;2.28;;;4.20;99.90;;;;;;5057881;28;20115;-59
2022/09/23 00:25:04;;;;;;;8.93;3.33;;;4.20;99.90;;;;;;5050148;28;20104;-59
2022/09/23 00:27:30;;;;;;;4.38;3.00;;;4.20;99.90;;;;;;5068593;28;20017;-58
2022/09/23 00:29:55;;;;;;;6.65;2.72;;;4.10;99.90;;;;;;5049389;28;20040;-59
2022/09/23 00:32:21;;;;;;;5.63;3.13;;;4.10;99.90;;;;;;5068763;28;20016;-57
2022/09/23 00:34:46;;;;;;;5.40;3.25;;;4.10;99.90;;;;;;5052607;28;20123;-59
2022/09/23 00:37:13;;;;;;;8.48;3.70;;;4.10;99.90;;;;;;5048520;28;20037;-59
2022/09/23 00:39:38;;;;;;;7.55;3.80;;;4.00;99.90;;;;;;5067836;28;20024;-59
2022/09/23 00:42:06;;;;;;;6.07;3.42;;;4.00;99.90;;;;;;5066583;28;20032;-59
2022/09/23 00:44:45;;;;;;;4.95;3.28;;;4.00;99.90;;;;;;5048642;28;20048;-59
2022/09/23 00:47:31;;;;;;;6.00;3.60;;;4.00;99.90;;;;;;5029945;28;20053;-59
2022/09/23 00:50:07;;;;;;;7.93;3.50;;;4.00;99.90;;;;;;5034335;28;20560;-60
2022/09/23 00:52:34;;;;;;;8.45;3.00;;;4.00;99.90;;;;;;5072638;28;20028;-60
2022/09/23 00:55:06;;;;;;;12.75;4.13;;;3.90;99.90;;;;;;5053082;28;20032;-59
2022/09/23 00:57:32;;;;;;;5.55;3.70;;;3.90;99.90;;;;;;5072528;28;20207;-59
2022/09/23 00:59:58;;;;;;;7.43;3.65;;;3.90;99.90;;;;;;5052616;28;20125;-59
2022/09/23 01:02:24;;;;;;;6.90;4.20;;;3.90;99.90;;;;;;5072464;28;20021;-60
2022/09/23 01:04:50;;;;;;;5.00;3.25;;;3.90;99.90;;;;;;5051184;28;20029;-60
2022/09/23 01:07:17;;;;;;;5.90;3.40;;;3.90;99.90;;;;;;5072334;28;20096;-60
2022/09/23 01:09:44;;;;;;;6.25;3.38;;;3.80;99.90;;;;;;5052397;28;20045;-60
2022/09/23 01:12:27;;;;;;;7.20;3.22;;;3.80;99.90;;;;;;5070145;28;20300;-60
2022/09/23 01:15:20;;;;;;;6.80;4.28;;;3.80;99.90;;;;;;5031690;28;20022;-60
2022/09/23 01:18:12;;;;;;;7.75;4.43;;;3.80;99.90;;;;;;5070365;28;20117;-60
2022/09/23 01:20:55;;;;;;;5.00;3.08;;;3.80;99.90;;;;;;5043689;28;20060;-61
2022/09/23 01:23:45;;;;;;;6.47;3.40;;;3.80;99.90;;;;;;5058465;28;20025;-60
2022/09/23 01:26:30;;;;;;;3.88;2.95;;;3.70;99.90;;;;;;5052693;28;20029;-60
2022/09/23 01:29:39;;;;;;;5.90;3.50;;;3.70;99.90;;;;;;5058925;28;20040;-60
2022/09/23 01:32:26;;;;;;;3.95;2.92;;;3.70;99.90;;;;;;5048922;28;20052;-61
2022/09/23 01:35:22;;;;;;;5.47;3.22;;;3.70;99.90;;;;;;5044839;28;20093;-61
2022/09/23 01:38:09;;;;;;;7.70;2.97;;;3.60;99.90;;;;;;5051971;28;20025;-61
2022/09/23 01:41:02;;;;;;;5.20;2.83;;;3.60;99.90;;;;;;5041660;28;20103;-61
2022/09/23 01:43:36;;;;;;;5.00;2.75;;;3.60;99.90;;;;;;5071954;28;20020;-61
2022/09/23 01:46:05;;;;;;;4.03;2.65;;;3.60;99.90;;;;;;5048758;28;20489;-61
2022/09/23 01:48:51;;;;;;;5.60;3.50;;;3.60;99.90;;;;;;5051636;28;20031;-61
2022/09/23 01:51:25;;;;;;;7.30;3.43;;;3.50;99.90;;;;;;5052247;28;20040;-61
2022/09/23 01:54:10;;;;;;;6.10;2.80;;;3.50;99.90;;;;;;5031593;28;20040;-61
2022/09/23 01:56:45;;;;;;;5.68;3.22;;;3.50;99.90;;;;;;5043614;28;20105;-61
2022/09/23 01:59:20;;;;;;;4.53;2.95;;;3.40;99.90;;;;;;5031147;28;20028;-61
2022/09/23 02:02:04;;;;;;;5.88;3.00;;;3.40;99.90;;;;;;5044430;28;20025;-61
2022/09/23 02:05:02;;;;;;;4.78;3.17;;;3.30;99.90;;;;;;5068892;28;20622;-62
2022/09/23 02:07:45;;;;;;;7.97;3.08;;;3.30;99.90;;;;;;5031380;28;20033;-61
2022/09/23 02:10:43;;;;;;;5.18;3.30;;;3.30;99.90;;;;;;5032418;28;20030;-61
2022/09/23 02:13:31;;;;;;;4.85;2.85;;;3.30;99.90;;;;;;5071235;28;20111;-61
2022/09/23 02:16:02;;;;;;;8.90;3.17;;;3.30;99.90;;;;;;5044984;28;20546;-61
2022/09/23 02:18:36;;;;;;;6.55;3.13;;;3.20;99.90;;;;;;5031287;28;20114;-61
2022/09/23 02:21:05;;;;;;;5.60;2.65;;;3.20;99.90;;;;;;5045957;28;20025;-61
2022/09/23 02:23:51;;;;;;;3.88;2.45;;;3.20;99.90;;;;;;5059059;28;20067;-61
2022/09/23 02:26:24;;;;;;;;;;;3.20;99.90;;;;;;5049029;28;20416;-61
2022/09/23 02:29:09;;;;;;;4.78;2.58;;;3.20;99.90;;;;;;5051059;28;19908;-61
2022/09/23 02:31:40;;;;;;;2.95;2.42;;;3.20;99.90;;;;;;5054340;28;20029;-61
2022/09/23 02:34:14;;;;;;;5.65;3.00;;;3.20;99.90;;;;;;5033060;28;20021;-61
2022/09/23 02:37:01;;;;;;;4.65;2.72;;;3.20;99.90;;;;;;5068774;28;20044;-61
2022/09/23 02:39:37;;;;;;;7.97;3.03;;;3.10;99.90;;;;;;5030915;28;20452;-61
2022/09/23 02:42:18;;;;;;;3.25;2.25;;;3.20;99.90;;;;;;5045261;28;20090;-61
2022/09/23 02:44:44;;;;;;;5.70;2.78;;;3.10;99.90;;;;;;5030813;28;20053;-61
2022/09/23 02:47:09;;;;;;;4.30;2.95;;;3.10;99.90;;;;;;5050470;28;20061;-61
2022/09/23 02:49:35;;;;;;;4.75;2.72;;;3.10;99.90;;;;;;5069740;28;20032;-61
2022/09/23 02:52:03;;;;;;;6.10;2.45;;;3.10;99.90;;;;;;5049195;28;20033;-62
2022/09/23 02:54:32;;;;;;;3.88;2.75;;;3.10;99.90;;;;;;5070187;28;20025;-61
2022/09/23 02:57:00;;;;;;;6.18;3.10;;;3.10;99.90;;;;;;5048771;28;20027;-61
2022/09/23 02:59:25;;;;;;;5.47;2.78;;;3.00;99.90;;;;;;5070046;28;20025;-61
2022/09/23 03:02:04;;;;;;;2.85;2.55;;;3.00;99.90;;;;;;5049026;28;20040;-61
2022/09/23 03:04:46;;;;;;;6.63;2.78;;;3.00;99.90;;;;;;5030446;28;20490;-61
2022/09/23 03:07:49;;;;;;;5.70;3.10;;;3.00;99.90;;;;;;5045281;28;20488;-61
2022/09/23 03:10:31;;;;;;;5.05;2.50;;;3.00;99.90;;;;;;5023628;28;20131;-62
2022/09/23 03:13:30;;;;;;;4.25;2.60;;;3.00;99.90;;;;;;5070161;28;21072;-61
2022/09/23 03:16:15;;;;;;;5.43;2.10;;;2.90;99.90;;;;;;5040304;28;20020;-61
2022/09/23 03:18:48;;;;;;;7.43;2.80;;;2.90;99.90;;;;;;5070064;28;20103;-61
2022/09/23 03:21:20;;;;;;;5.28;2.63;;;2.90;99.90;;;;;;5044822;28;20028;-61
2022/09/23 03:23:46;;;;;;;3.85;2.67;;;2.90;99.90;;;;;;5029633;28;20073;-61
2022/09/23 03:26:26;;;;;;;3.42;2.45;;;2.90;99.90;;;;;;5066708;28;20028;-61
2022/09/23 03:28:53;;;;;;;7.40;3.05;;;2.80;99.90;;;;;;5029856;28;20124;-61
2022/09/23 03:31:18;;;;;;;4.15;2.83;;;2.80;99.90;;;;;;5066616;28;20044;-61
2022/09/23 03:33:51;;;;;;;5.68;2.75;;;2.80;99.90;;;;;;5050074;28;20053;-61
2022/09/23 03:39:17;;;;;;;6.35;3.53;;;2.80;99.90;;;;;;5030056;28;20801;-61
2022/09/23 03:41:48;;;;;;;9.65;4.75;;;2.80;99.90;;;;;;5051220;28;20039;-61
2022/09/23 03:44:14;;;;;;;11.02;4.95;;;2.80;99.90;;;;;;5029780;28;20029;-61
2022/09/23 03:46:41;;;;;;;10.02;4.82;;;2.80;99.90;;;;;;5055000;28;20033;-62
2022/09/23 03:49:26;;;;;;;7.10;3.90;;;2.80;99.90;;;;;;5068591;28;20021;-61
2022/09/23 03:51:52;;;;;;;10.68;5.25;;;2.70;99.90;;;;;;5040403;28;20082;-61
2022/09/23 03:54:19;;;;;;;7.38;4.28;;;2.70;99.90;;;;;;5068570;28;20507;-62
2022/09/23 03:56:46;;;;;;;7.13;3.95;;;2.70;99.90;;;;;;5047707;28;20440;-61
2022/09/23 03:59:13;;;;;;;26.92;10.02;;;2.70;99.90;;;;;;5068660;28;20024;-61
2022/09/23 04:01:42;;;;;;;15.45;6.75;;;2.70;99.90;;;;;;5058488;28;20032;-61
2022/09/23 04:04:09;;;;;;;35.70;12.27;;;2.70;99.90;;;;;;5048036;28;20036;-61
2022/09/23 04:06:34;;;;;;;34.58;12.73;;;2.70;99.90;;;;;;5052228;28;20781;-61
2022/09/23 04:09:00;;;;;;;30.85;11.77;;;2.70;99.90;;;;;;5048796;28;20063;-62
2022/09/23 04:11:26;;;;;;;19.20;9.27;;;2.70;99.90;;;;;;5054502;28;20044;-62
2022/09/23 04:13:53;;;;;;;13.75;6.40;;;2.70;99.90;;;;;;5049306;28;20036;-62
2022/09/23 04:16:19;;;;;;;14.30;7.03;;;2.60;99.90;;;;;;5066831;28;20547;-63
2022/09/23 04:18:44;;;;;;;10.63;5.80;;;2.60;99.90;;;;;;5049414;28;20064;-68
2022/09/23 04:21:10;;;;;;;20.25;9.82;;;2.60;99.90;;;;;;5059897;28;20028;-61
2022/09/23 04:23:35;;;;;;;31.92;13.68;;;2.60;99.90;;;;;;5044730;28;20090;-62
2022/09/23 04:26:02;;;;;;;28.85;11.57;;;2.60;99.90;;;;;;5054699;28;20228;-61
2022/09/23 04:28:28;;;;;;;29.48;12.43;;;2.60;99.90;;;;;;5067966;28;20142;-61
2022/09/23 04:30:54;;;;;;;16.52;8.93;;;2.60;99.90;;;;;;5049986;28;20514;-61
2022/09/23 04:33:20;;;;;;;13.43;7.30;;;2.60;99.90;;;;;;5067443;28;20020;-61
2022/09/23 04:35:49;;;;;;;13.93;7.45;;;2.60;99.90;;;;;;5049231;28;20037;-61
2022/09/23 04:38:15;;;;;;;23.70;9.20;;;2.60;99.90;;;;;;5068843;28;20031;-61
2022/09/23 04:40:40;;;;;;;15.23;7.18;;;2.60;99.90;;;;;;5049037;28;20033;-61
2022/09/23 04:43:06;;;;;;;8.77;5.63;;;2.60;99.90;;;;;;5068931;28;20085;-61
2022/09/23 04:45:31;;;;;;;12.07;6.72;;;2.60;99.90;;;;;;5047565;28;20056;-60
2022/09/23 04:47:57;;;;;;;9.35;5.38;;;2.60;99.90;;;;;;5068881;28;20024;-61
2022/09/23 04:50:24;;;;;;;11.65;5.15;;;2.60;99.90;;;;;;5049443;28;20029;-61
2022/09/23 04:52:50;;;;;;;16.15;6.57;;;2.60;99.90;;;;;;5047268;28;20056;-61
2022/09/23 04:55:15;;;;;;;18.17;8.55;;;2.60;99.90;;;;;;5052173;28;20063;-61
2022/09/23 04:57:41;;;;;;;12.63;7.22;;;2.60;99.90;;;;;;5046711;28;20100;-61
2022/09/23 05:00:07;;;;;;;14.13;6.80;;;2.60;99.90;;;;;;5066942;28;20029;-61
2022/09/23 05:02:34;;;;;;;17.58;9.00;;;2.60;99.90;;;;;;5045996;28;20040;-62
2022/09/23 05:04:59;;;;;;;20.35;9.23;;;2.70;99.90;;;;;;5061722;28;20033;-61
2022/09/23 05:07:25;;;;;;;15.40;7.32;;;2.70;99.90;;;;;;5061969;28;20381;-62
2022/09/23 05:09:50;;;;;;;15.82;7.72;;;2.70;99.90;;;;;;5049011;28;20503;-61
2022/09/23 05:12:16;;;;;;;17.83;9.13;;;2.70;99.90;;;;;;5052009;28;20048;-61
2022/09/23 05:14:41;;;;;;;21.42;11.27;;;2.70;99.90;;;;;;5067445;28;20036;-62
2022/09/23 05:17:07;;;;;;;16.77;8.90;;;2.70;99.90;;;;;;5047217;28;20385;-62
2022/09/23 05:19:32;;;;;;;18.13;9.00;;;2.70;99.90;;;;;;5062258;28;20076;-62
2022/09/23 05:21:58;;;;;;;10.77;5.97;;;2.80;99.90;;;;;;5057382;28;20089;-61
2022/09/23 05:24:23;;;;;;;6.57;4.40;;;2.80;99.90;;;;;;5042916;28;20037;-62
2022/09/23 05:26:50;;;;;;;6.35;3.42;;;2.90;99.90;;;;;;5065576;28;20657;-62
2022/09/23 05:29:16;;;;;;;6.38;3.95;;;2.90;99.90;;;;;;5048566;28;20025;-61
2022/09/23 05:31:41;;;;;;;7.28;4.35;;;3.00;99.90;;;;;;5065518;28;20033;-62
2022/09/23 05:34:07;;;;;;;6.72;4.43;;;3.00;99.90;;;;;;5052477;28;20059;-63
2022/09/23 05:36:34;;;;;;;7.50;4.35;;;3.10;99.90;;;;;;5069930;28;20020;-63
2022/09/23 05:39:00;;;;;;;8.77;5.47;;;3.10;99.90;;;;;;5071923;28;20053;-63
2022/09/23 05:41:26;;;;;;;12.40;6.05;;;3.30;99.90;;;;;;5056889;28;20064;-63
2022/09/23 05:43:53;;;;;;;7.68;4.30;;;3.70;99.90;;;;;;5071630;28;20031;-63
2022/09/23 05:46:21;;;;;;;4.57;2.80;;;4.60;99.90;;;;;;5055105;28;20063;-63
2022/09/23 05:48:47;;;;;;;5.13;2.60;;;5.70;99.90;;;;;;5071641;28;20480;-63
2022/09/23 05:51:16;;;;;;;7.30;3.42;;;6.80;99.90;;;;;;5054370;28;20032;-63
2022/09/23 05:53:44;;;;;;;7.72;3.60;;;7.80;99.90;;;;;;5071811;28;20044;-63
2022/09/23 05:56:11;;;;;;;7.68;3.53;;;8.70;99.90;;;;;;5053267;28;20305;-63
2022/09/23 05:58:36;;;;;;;9.30;3.60;;;9.50;97.70;;;;;;5071405;28;20488;-63
2022/09/23 06:01:09;;;;;;;5.68;2.65;;;10.30;93.90;;;;;;5052364;28;20090;-63
2022/09/23 06:03:34;;;;;;;2.45;2.15;;;11.10;92.80;;;;;;5071356;28;20029;-63
2022/09/23 06:06:00;;;;;;;2.47;1.98;;;11.70;86.40;;;;;;5051772;28;20237;-63
2022/09/23 06:08:25;;;;;;;1.95;1.75;;;12.20;82.50;;;;;;5071427;28;20102;-63
2022/09/23 06:10:51;;;;;;;3.45;1.80;;;12.80;76.60;;;;;;5048936;28;20041;-63
2022/09/23 06:13:16;;;;;;;3.92;1.75;;;13.40;78.10;;;;;;5071431;28;20109;-63
2022/09/23 06:15:43;;;;;;;2.00;1.65;;;14.10;75.40;;;;;;5051919;28;20021;-62
2022/09/23 06:18:09;;;;;;;1.95;1.30;;;14.70;73.50;;;;;;5049117;28;20032;-62
2022/09/23 06:20:35;;;;;;;2.33;1.45;;;15.30;72.50;;;;;;5070457;28;20036;-62
2022/09/23 06:23:09;;;;;;;2.42;1.40;;;15.90;70.60;;;;;;5054017;28;20036;-62
2022/09/23 06:25:37;;;;;;;1.95;1.33;;;16.30;62.20;;;;;;5071172;28;20020;-62
2022/09/23 06:28:03;;;;;;;3.70;1.40;;;16.80;62.90;;;;;;5049322;28;20090;-63
2022/09/23 06:30:28;;;;;;;1.63;1.40;;;17.20;63.20;;;;;;5070069;28;20461;-63
2022/09/23 06:32:56;;;;;;;3.28;1.27;;;17.60;62.00;;;;;;5049641;28;20033;-63
2022/09/23 06:35:25;;;;;;;2.13;1.50;;;17.80;55.50;;;;;;5070227;28;20031;-63
2022/09/23 06:37:51;;;;;;;2.00;1.30;;;18.20;55.10;;;;;;5049002;28;20060;-63
2022/09/23 06:40:17;;;;;;;1.98;1.50;;;18.50;56.10;;;;;;5070115;28;20060;-63
2022/09/23 06:42:43;;;;;;;3.10;1.48;;;18.90;53.20;;;;;;5049371;28;20059;-62
2022/09/23 06:45:13;;;;;;;3.15;1.50;;;19.20;52.50;;;;;;5069865;28;20500;-63
2022/09/23 06:47:39;;;;;;;1.30;1.20;;;19.60;51.00;;;;;;5041998;28;20107;-62
2022/09/23 06:50:06;;;;;;;1.90;1.67;;;20.00;50.10;;;;;;5069737;28;20104;-63
2022/09/23 06:52:32;;;;;;;1.85;1.58;;;20.30;48.50;;;;;;5048988;28;20033;-63
2022/09/23 06:54:57;;;;;;;1.75;1.38;;;20.50;46.00;;;;;;5069600;28;20514;-63
2022/09/23 06:57:23;;;;;;;2.10;1.70;;;20.80;45.90;;;;;;5049177;28;20086;-63
2022/09/23 06:59:49;;;;;;;3.88;1.70;;;21.00;43.40;;;;;;5069484;28;20032;-63
2022/09/23 07:02:14;;;;;;;2.05;1.48;;;21.00;42.10;;;;;;5059302;28;20500;-63
2022/09/23 07:04:40;;;;;;;1.67;1.48;;;21.20;41.50;;;;;;5050716;28;20033;-63
2022/09/23 07:07:05;;;;;;;1.63;1.50;;;21.10;40.40;;;;;;5067301;28;20366;-63
2022/09/23 07:09:30;;;;;;;2.20;1.58;;;20.70;39.50;;;;;;5049219;28;20033;-62
2022/09/23 07:11:56;;;;;;;1.88;1.30;;;20.30;38.50;;;;;;5067291;28;20032;-62
2022/09/23 07:14:23;;;;;;;1.52;1.10;;;20.00;39.20;;;;;;5049169;28;20401;-62
2022/09/23 07:16:49;;;;;;;1.30;1.20;;;20.10;40.20;;;;;;5067262;28;20028;-62
2022/09/23 07:19:15;;;;;;;2.72;1.65;;;20.10;39.70;;;;;;5069912;28;20033;-62
2022/09/23 07:21:40;;;;;;;4.20;1.95;;;20.20;40.20;;;;;;5052428;28;20032;-62
2022/09/23 07:24:06;;;;;;;1.77;1.48;;;20.20;34.60;;;;;;5049053;28;20397;-63
2022/09/23 07:26:32;;;;;;;1.98;1.65;;;20.10;38.50;;;;;;5066984;28;20035;-62
2022/09/23 07:29:03;;;;;;;2.15;1.73;;;20.30;36.60;;;;;;5069883;28;20028;-62
2022/09/23 07:31:31;;;;;;;1.90;1.40;;;20.20;38.40;;;;;;5035103;28;20329;-62
2022/09/23 07:33:57;;;;;;;2.50;1.90;;;20.30;39.10;;;;;;5069467;28;20024;-62
2022/09/23 07:36:26;;;;;;;1.60;1.50;;;20.40;39.80;;;;;;5050150;28;20082;-62
2022/09/23 07:38:52;;;;;;;2.10;1.73;;;20.60;38.00;;;;;;5069457;28;20032;-62
2022/09/23 07:41:18;;;;;;;1.90;1.30;;;20.70;36.20;;;;;;5049788;28;20459;-62
2022/09/23 07:43:45;;;;;;;1.95;1.60;;;20.80;35.50;;;;;;5069330;28;20053;-62
2022/09/23 07:46:15;;;;;;;3.58;1.80;;;20.90;32.80;;;;;;5048535;28;20440;-62
2022/09/23 07:48:41;;;;;;;2.92;1.70;;;20.60;32.70;;;;;;5069323;28;20024;-62
2022/09/23 07:51:11;;;;;;;3.10;1.60;;;20.70;32.90;;;;;;5047870;28;20040;-62
2022/09/23 07:53:37;;;;;;;2.85;1.65;;;20.40;29.30;;;;;;5029436;28;20065;-62
2022/09/23 07:56:05;;;;;;;3.30;1.83;;;20.10;32.30;;;;;;5067377;28;20468;-62
2022/09/23 07:58:31;;;;;;;3.00;1.70;;;20.10;32.00;;;;;;5067074;28;20264;-62
2022/09/23 08:01:04;;;;;;;2.65;1.98;;;20.00;32.80;;;;;;5049661;28;20200;-62
2022/09/23 08:03:30;;;;;;;3.13;1.90;;;20.00;29.60;;;;;;5047447;28;20025;-62
2022/09/23 08:06:06;;;;;;;1.77;1.52;;;20.00;33.20;;;;;;5068224;28;20581;-62
2022/09/23 08:08:32;;;;;;;2.53;1.70;;;20.10;29.50;;;;;;5046920;28;20532;-62
2022/09/23 08:11:02;;;;;;;2.22;1.63;;;20.20;34.00;;;;;;5068161;28;20029;-62
2022/09/23 08:13:29;;;;;;;2.58;2.05;;;20.20;30.90;;;;;;5047377;28;20083;-63
2022/09/23 08:15:55;;;;;;;3.00;1.92;;;20.20;33.10;;;;;;5068254;28;20058;-62
2022/09/23 08:18:20;;;;;;;3.20;2.15;;;20.10;30.10;;;;;;5047592;28;20538;-62
2022/09/23 08:20:46;;;;;;;1.83;1.52;;;20.10;31.20;;;;;;5068109;28;20082;-62
2022/09/23 08:23:15;;;;;;;4.60;1.52;;;20.20;31.40;;;;;;5049860;28;20029;-62
2022/09/23 08:25:42;;;;;;;1.77;1.50;;;20.20;31.60;;;;;;5048903;28;20392;-62
2022/09/23 08:28:07;;;;;;;2.20;1.90;;;20.30;31.00;;;;;;5050924;28;20033;-62
2022/09/23 08:30:34;;;;;;;3.17;1.65;;;20.30;29.70;;;;;;5067886;28;20040;-62
2022/09/23 08:33:00;;;;;;;2.42;1.70;;;20.20;30.50;;;;;;5047283;28;20029;-62
2022/09/23 08:35:25;;;;;;;1.80;1.40;;;20.10;30.20;;;;;;5067909;28;20093;-62
2022/09/23 08:37:51;;;;;;;1.98;1.77;;;20.10;30.00;;;;;;5047304;28;20032;-62
2022/09/23 08:40:18;;;;;;;3.88;1.60;;;20.30;29.80;;;;;;5068013;28;20029;-62
2022/09/23 08:42:44;;;;;;;3.47;2.03;;;20.40;29.70;;;;;;5047157;28;20040;-62
2022/09/23 08:45:28;;;;;;;2.40;1.90;;;20.60;29.00;;;;;;5067951;28;20029;-62
2022/09/23 08:47:53;;;;;;;4.30;2.03;;;20.70;27.50;;;;;;5035416;28;20112;-62
2022/09/23 08:50:21;;;;;;;2.92;1.75;;;20.70;27.50;;;;;;5067037;28;20178;-62
2022/09/23 08:53:18;;;;;;;4.18;1.55;;;20.70;27.60;;;;;;5046834;28;20017;-62
2022/09/23 08:55:47;;;;;;;;;;;20.40;25.90;;;;;;5029119;28;20179;-62
2022/09/23 08:58:49;;;;;;;2.85;1.77;;;20.50;25.20;;;;;;5048740;28;19948;-62
2022/09/23 09:01:39;;;;;;;4.20;1.70;;;20.50;25.60;;;;;;5028649;28;20037;-62
2022/09/23 09:04:17;;;;;;;1.60;1.40;;;20.30;23.80;;;;;;5028590;28;20041;-62
2022/09/23 09:06:49;;;;;;;4.10;1.50;;;20.10;25.40;;;;;;5066134;28;20025;-62
2022/09/23 09:09:32;;;;;;;1.15;1.05;;;19.70;26.80;;;;;;5071552;28;20202;-62
2022/09/23 09:12:05;;;;;;;1.55;1.27;;;19.70;25.80;;;;;;5040127;28;20033;-62
2022/09/23 09:15:09;;;;;;;2.20;1.33;;;19.70;25.90;;;;;;5072196;28;20476;-62
2022/09/23 09:17:50;;;;;;;2.53;1.17;;;19.80;24.20;;;;;;5049889;28;20423;-62
2022/09/23 09:20:31;;;;;;;1.55;1.02;;;20.00;25.60;;;;;;5032325;28;20029;-62
2022/09/23 09:23:00;;;;;;;1.20;1.10;;;20.30;24.70;;;;;;5043566;28;20028;-62
2022/09/23 09:25:37;;;;;;;3.30;0.90;;;20.30;25.20;;;;;;5072005;28;20465;-62
2022/09/23 09:28:20;;;;;;;3.85;1.20;;;20.50;24.80;;;;;;5050480;28;20164;-62
2022/09/23 09:30:52;;;;;;;0.98;0.80;;;20.20;24.10;;;;;;5032040;28;20069;-62
2022/09/23 09:33:23;;;;;;;1.10;1.00;;;20.20;23.80;;;;;;5044280;28;20037;-68
2022/09/23 09:36:07;;;;;;;3.15;1.30;;;20.20;23.90;;;;;;5031740;28;20092;-68
2022/09/23 09:38:34;;;;;;;2.08;1.50;;;20.20;21.70;;;;;;5052797;28;20128;-67
2022/09/23 09:41:07;;;;;;;0.80;0.80;;;19.80;22.90;;;;;;5069917;28;20024;-68
2022/09/23 09:43:34;;;;;;;2.50;1.20;;;19.60;23.50;;;;;;5046867;28;20056;-67
2022/09/23 09:46:07;;;;;;;1.75;1.20;;;19.60;23.60;;;;;;5071139;28;20059;-67
2022/09/23 09:48:55;;;;;;;1.70;1.45;;;19.40;22.80;;;;;;5046652;28;20037;-67
2022/09/23 09:51:26;;;;;;;2.38;1.30;;;19.30;23.30;;;;;;5031642;28;20034;-68
2022/09/23 09:53:53;;;;;;;1.73;1.30;;;19.30;24.20;;;;;;5049966;28;20465;-68
2022/09/23 09:56:26;;;;;;;1.58;1.00;;;19.40;23.90;;;;;;5070998;28;20035;-68
2022/09/23 09:58:54;;;;;;;1.45;1.10;;;19.50;23.50;;;;;;5048977;28;20119;-68
2022/09/23 10:01:28;;;;;;;2.63;1.30;;;19.60;23.20;;;;;;5070948;28;20576;-68
2022/09/23 10:04:05;;;;;;;1.80;1.30;;;19.70;24.00;;;;;;5049685;28;20519;-68
2022/09/23 10:06:34;;;;;;;1.20;1.00;;;19.80;23.10;;;;;;5030019;28;20105;-68
2022/09/23 10:09:17;;;;;;;2.50;1.20;;;19.90;23.10;;;;;;5031697;28;20060;-68
2022/09/23 10:12:21;;;;;;;2.70;1.27;;;19.90;22.80;;;;;;5031602;28;20083;-68
2022/09/23 10:14:51;;;;;;;1.33;1.17;;;20.00;23.00;;;;;;5070776;28;20037;-67
2022/09/23 10:17:26;;;;;;;4.72;1.30;;;20.10;22.50;;;;;;5040460;28;20020;-68
2022/09/23 10:20:05;;;;;;;1.10;1.00;;;20.20;22.30;;;;;;5070668;28;20028;-68
2022/09/23 10:22:35;;;;;;;1.40;1.08;;;20.30;22.10;;;;;;5056447;28;20527;-65
2022/09/23 10:25:07;;;;;;;3.13;1.42;;;20.20;21.20;;;;;;5067935;28;20078;-61
2022/09/23 10:27:34;;;;;;;4.43;1.20;;;20.10;21.30;;;;;;5044073;28;20024;-61
2022/09/23 10:30:22;;;;;;;1.42;1.10;;;20.00;21.30;;;;;;5057198;28;20068;-60
2022/09/23 10:32:48;;;;;;;1.60;1.08;;;20.00;20.30;;;;;;5047600;28;20031;-61
2022/09/23 10:35:23;;;;;;;2.33;0.80;;;20.00;21.10;;;;;;5059870;28;20150;-61
2022/09/23 10:37:56;;;;;;;2.20;1.08;;;20.10;20.90;;;;;;5047849;28;20064;-61
2022/09/23 10:47:33;;;;;;;1.07;0.90;;;19.60;20.30;;;;;;5032255;28;20087;-61
2022/09/23 10:50:22;;;;;;;1.27;0.80;;;19.60;20.30;;;;;;5070597;28;20309;-61
2022/09/23 10:53:30;;;;;;;2.17;1.17;;;19.60;19.00;;;;;;5046641;28;20040;-61
2022/09/23 10:56:22;;;;;;;1.25;1.10;;;19.50;19.00;;;;;;5058375;28;20049;-62
2022/09/23 10:58:57;;;;;;;1.80;1.10;;;19.30;18.80;;;;;;5045719;28;20033;-62
2022/09/23 11:01:37;;;;;;;1.55;1.02;;;19.00;19.90;;;;;;5030638;28;20100;-61
2022/09/23 11:04:40;;;;;;;1.42;1.10;;;19.00;20.20;;;;;;5047441;28;20040;-61
2022/09/23 11:07:29;;;;;;;1.00;0.80;;;19.00;20.30;;;;;;5032802;28;20056;-61
2022/09/23 11:10:19;;;;;;;1.73;0.90;;;19.00;20.10;;;;;;5047665;28;20182;-61
2022/09/23 11:13:11;;;;;;;1.50;0.90;;;18.90;18.40;;;;;;5034687;28;20037;-61
2022/09/23 11:15:55;;;;;;;1.55;0.90;;;18.80;19.50;;;;;;5035085;28;20017;-61
2022/09/23 11:18:46;;;;;;;1.30;1.02;;;18.80;19.20;;;;;;5051666;28;20135;-61
2022/09/23 11:21:27;;;;;;;0.98;0.65;;;18.80;20.40;;;;;;5026549;28;20490;-61
2022/09/23 11:24:19;;;;;;;1.52;1.00;;;18.90;19.60;;;;;;5020621;28;20435;-61
2022/09/23 11:27:09;;;;;;;1.02;0.93;;;18.90;19.20;;;;;;5026738;28;20029;-61
2022/09/23 11:29:52;;;;;;;2.25;1.00;;;18.60;20.30;;;;;;5047480;28;20051;-61
2022/09/23 11:32:21;;;;;;;1.30;0.88;;;18.70;20.00;;;;;;5034164;28;20567;-61
2022/09/23 11:35:10;;;;;;;1.02;0.93;;;18.80;19.80;;;;;;5060410;28;20059;-61
2022/09/23 11:37:41;;;;;;;2.30;1.00;;;18.90;19.30;;;;;;5059371;28;20036;-61
2022/09/23 11:40:38;;;;;;;1.58;0.98;;;18.90;18.60;;;;;;5054447;28;20029;-61
2022/09/23 11:43:06;;;;;;;2.83;1.17;;;18.90;19.60;;;;;;5050591;28;20039;-61
2022/09/23 11:45:41;;;;;;;1.25;0.80;;;18.90;19.40;;;;;;5049005;28;20107;-61
2022/09/23 11:48:34;;;;;;;1.85;1.33;;;19.10;19.30;;;;;;5047371;28;20024;-61
2022/09/23 11:51:05;;;;;;;1.35;1.20;;;19.10;18.20;;;;;;5029402;28;20041;-61
2022/09/23 11:53:48;;;;;;;1.52;0.95;;;19.10;18.60;;;;;;5040863;28;20036;-61
2022/09/23 11:56:27;;;;;;;1.05;0.95;;;19.20;18.50;;;;;;5029810;28;20712;-62
2022/09/23 11:59:17;;;;;;;1.33;0.80;;;19.30;19.00;;;;;;5044078;28;20021;-61
2022/09/23 12:01:59;;;;;;;0.95;0.90;;;19.40;17.60;;;;;;5068472;28;20086;-61
2022/09/23 12:04:39;;;;;;;1.20;1.00;;;19.60;18.20;;;;;;5069325;28;20029;-62
2022/09/23 12:07:07;;;;;;;2.78;1.45;;;19.70;18.00;;;;;;5029488;28;20482;-61
2022/09/23 12:10:02;;;;;;;1.92;1.05;;;19.60;17.80;;;;;;5069235;28;20499;-61
2022/09/23 12:12:41;;;;;;;4.03;1.38;;;19.60;18.80;;;;;;5051265;28;20020;-61
2022/09/23 12:15:12;;;;;;;4.00;0.93;;;19.50;17.10;;;;;;5069379;28;20435;-61
2022/09/23 12:17:57;;;;;;;1.40;1.20;;;19.50;18.30;;;;;;5052347;28;20368;-61
2022/09/23 12:20:50;;;;;;;1.42;1.30;;;19.40;18.10;;;;;;5069327;28;20028;-61
2022/09/23 12:23:53;;;;;;;2.25;0.90;;;19.30;16.80;;;;;;5044667;28;20040;-61
2022/09/23 12:26:21;;;;;;;1.23;0.90;;;19.30;17.70;;;;;;5049711;28;20025;-62
2022/09/23 12:28:50;;;;;;;0.93;0.70;;;19.20;18.00;;;;;;5052263;28;20037;-61
2022/09/23 12:31:19;;;;;;;1.13;1.00;;;19.20;18.10;;;;;;5067933;28;20130;-61
2022/09/23 12:33:49;;;;;;;1.67;0.75;;;19.20;18.30;;;;;;5040020;28;20032;-61
2022/09/23 12:36:16;;;;;;;1.58;1.20;;;19.20;18.70;;;;;;5068146;28;20098;-61
2022/09/23 12:38:56;;;;;;;1.10;1.00;;;19.10;18.30;;;;;;5046453;28;20104;-61
2022/09/23 12:41:26;;;;;;;1.10;1.00;;;19.00;18.60;;;;;;5029304;28;20033;-60
2022/09/23 12:44:14;;;;;;;1.27;1.08;;;19.00;18.30;;;;;;5056708;28;20040;-61
2022/09/23 12:46:44;;;;;;;3.33;1.27;;;18.80;17.50;;;;;;5035492;28;20055;-60
2022/09/23 12:49:26;;;;;;;1.70;1.20;;;18.70;17.60;;;;;;5055504;28;20393;-61
2022/09/23 12:52:09;;;;;;;3.00;1.30;;;18.40;17.90;;;;;;5075379;28;20473;-61
2022/09/23 12:54:37;;;;;;;1.23;1.00;;;18.30;18.60;;;;;;5055782;28;20673;-61
2022/09/23 12:57:04;;;;;;;1.20;1.00;;;18.30;18.60;;;;;;5075040;28;20035;-60
2022/09/23 12:59:54;;;;;;;1.13;0.88;;;18.40;18.70;;;;;;5073585;28;20108;-60
2022/09/23 13:02:28;;;;;;;1.25;1.15;;;18.30;18.50;;;;;;5036564;28;20025;-59
2022/09/23 13:08:05;;;;;;;2.65;1.15;;;18.30;18.50;;;;;;5047060;28;20059;-60
2022/09/23 13:10:37;;;;;;;1.98;0.95;;;18.00;18.90;;;;;;5075203;28;20047;-60
2022/09/23 13:13:05;;;;;;;1.20;0.95;;;17.90;19.50;;;;;;5047619;28;20060;-62
2022/09/23 13:15:33;;;;;;;1.45;1.20;;;17.90;19.70;;;;;;5075412;28;20021;-62
2022/09/23 13:18:17;;;;;;;1.70;1.52;;;17.90;19.80;;;;;;5059588;28;20028;-62
2022/09/23 13:20:43;;;;;;;2.05;1.10;;;17.70;19.80;;;;;;5055844;28;20039;-62
2022/09/23 13:23:20;;;;;;;1.33;1.00;;;17.60;19.90;;;;;;5066374;28;20397;-62
2022/09/23 13:25:46;;;;;;;1.50;1.30;;;17.50;20.60;;;;;;5035241;28;20029;-62
2022/09/23 13:28:42;;;;;;;2.97;1.08;;;17.60;20.90;;;;;;5072208;28;20389;-62
2022/09/23 13:31:14;;;;;;;1.30;1.00;;;17.70;20.40;;;;;;5034910;28;20025;-62
2022/09/23 13:33:46;;;;;;;1.33;1.00;;;17.80;20.50;;;;;;5061621;28;20021;-68